This demonstration page uses our WeatherBlox Daily Observations layout. Learn more.

38.89511, -77.03637

Hourly Observations for April 26, 2015

Temp ( °F °C ) Dew Point ( °F °C ) Humidity (%) Winds ( mph kmh ) Pressure ( in mb ) Visibility ( mi km ) Precip ( " mm )
12:52 am 00:52 Cloudy 46 7.8 39 3.9 77 77 ENE 3 6 29.72 1007 10 16.0934 0.01 0.254
1:52 am 01:52 Cloudy 45 7.2 40 4.4 83 83 SSW 7 11 29.7 1006 10 16.0934 0 0
2:52 am 02:52 Cloudy 46 7.8 39 3.9 77 77 Calm 29.69 1005 10 16.0934 0 0
3:52 am 03:52 Cloudy 46 7.8 39 3.9 77 77 NNW 5 7 29.7 1006 10 16.0934 0 0
4:52 am 04:52 Cloudy 46 7.8 41 5 83 83 NNW 8 13 29.69 1006 9 14.48406 0 0
5:52 am 05:52 Cloudy 46 7.8 40 4.4 79 79 NW 6 9 29.69 1006 10 16.0934 0 0
6:52 am 06:52 Cloudy 46 7.8 40 4.4 79 79 NW 6 9 29.69 1006 10 16.0934 0 0
7:52 am 07:52 Cloudy 48 8.9 40 4.4 74 74 N 7 11 29.7 1006 10 16.0934 0 0
8:52 am 08:52 Mostly Cloudy 50 10 39 3.9 66 66 N 8 13 29.71 1006 10 16.0934 0 0
9:52 am 09:52 Partly Cloudy 54 12.2 37 2.8 53 53 NNE 6 9 29.72 1006 10 16.0934 0 0
10:52 am 10:52 Partly Cloudy 57 13.9 37 2.8 47 47 NNE 5 7 29.73 1007 10 16.0934 0 0
11:52 am 11:52 Partly Cloudy 59 15 36 2.2 42 42 Calm 29.73 1007 10 16.0934 0 0
12:52 pm 12:52 Partly Cloudy 62 16.7 34 1.1 35 35 Calm 29.72 1006 10 16.0934 0 0
1:52 pm 13:52 Mostly Cloudy 65 18.3 35 1.7 33 33 N 3 6 29.7 1006 10 16.0934 0 0
2:52 pm 14:52 Mostly Cloudy 65 18.3 33 0.6 31 31 Calm 29.7 1006 10 16.0934 0 0
3:52 pm 15:52 Partly Cloudy 65 18.3 34 1.1 32 32 NE 7 11 29.68 1005 10 16.0934 0 0
4:52 pm 16:52 Mostly Cloudy 67 19.4 34 1.1 30 30 WNW 10 17 29.68 1005 10 16.0934 0 0
5:52 pm 17:52 Mostly Cloudy 66 18.9 35 1.7 32 32 N 6 9 29.68 1005 10 16.0934 0 0
6:52 pm 18:52 Partly Cloudy 65 18.3 36 2.2 34 34 N 6 9 29.69 1005 10 16.0934 0 0
7:52 pm 19:52 Mostly Cloudy 61 16.1 35 1.7 38 38 N 10 17 29.7 1006 10 16.0934 0 0
8:52 pm 20:52 Partly Cloudy 59 15 39 3.9 48 48 ENE 5 7 29.71 1006 10 16.0934 0 0
9:52 pm 21:52 Mostly Clear 57 13.9 37 2.8 47 47 SSE 6 9 29.73 1007 10 16.0934 0 0
10:52 pm 22:52 Partly Cloudy 56 13.3 37 2.8 49 49 Calm 29.73 1007 10 16.0934 0 0
11:52 pm 23:52 Partly Cloudy 54 12.2 38 3.3 55 55 Calm 29.74 1007 10 16.0934 0 0

Powered by AerisWeather